Time;durP1;ratioP1;P1;durP2;ratioP2;P2;SDS_P1;SDS_P2;PMS_P1;PMS_P2;Temp;Humidity;BMP_temperature;BMP_pressure;BME280_temperature;BME280_humidity;BME280_pressure;Samples;Min_cycle;Max_cycle;Signal;HPM_P1;HPM_P2
2022/08/17 15:10:08;;;;;;;;;6.50;4.00;;;;;28.20;51.32;97988.19;6257772;22;101748;-96
2022/08/17 15:12:52;;;;;;;;;4.00;4.00;;;;;28.26;51.30;97986.88;6222849;22;101099;-96
2022/08/17 15:15:37;;;;;;;;;4.33;4.33;;;;;28.21;51.00;97984.25;6265145;22;101548;-96
2022/08/17 15:18:23;;;;;;;;;5.00;4.00;;;;;28.21;51.39;97983.44;6245208;22;101276;-96
2022/08/17 15:21:10;;;;;;;;;5.00;5.00;;;;;28.21;50.99;97989.81;6265836;22;101740;-96
2022/08/17 15:24:09;;;;;;;;;4.33;4.00;;;;;28.24;51.43;97983.59;6247720;22;101051;-96
2022/08/17 17:11:43;;;;;;;;;5.67;5.00;;;;;28.25;50.93;98020.56;6280737;22;102152;-95
2022/08/17 17:14:47;;;;;;;;;6.00;6.00;;;;;28.26;50.73;98013.88;6240003;22;102299;-94
2022/08/17 17:17:32;;;;;;;;;4.00;4.00;;;;;28.24;51.46;98016.97;6272789;22;103031;-96
2022/08/17 17:25:43;;;;;;;;;4.00;4.00;;;;;28.18;51.64;98011.91;6250871;22;102138;-96
2022/08/17 21:22:30;;;;;;;;;19.67;19.00;;;;;26.19;55.74;98112.28;6278154;22;121712;-96
2022/08/17 21:25:28;;;;;;;;;19.33;19.00;;;;;26.12;55.84;98104.38;6234419;22;101846;-96
2022/08/17 21:28:00;;;;;;;;;21.00;20.33;;;;;26.17;55.69;98109.81;6236353;22;104711;-96
2022/08/17 21:30:27;;;;;;;;;18.67;18.33;;;;;26.18;55.63;98118.94;6235948;22;102109;-96
2022/08/17 21:33:23;;;;;;;;;18.67;18.00;;;;;26.21;55.50;98120.31;6237604;22;102162;-96
2022/08/17 21:36:15;;;;;;;;;18.33;17.33;;;;;26.23;55.62;98121.63;6238651;22;101994;-96
2022/08/17 21:39:00;;;;;;;;;19.33;18.00;;;;;26.25;55.53;98122.16;6214246;22;104491;-96
2022/08/17 21:41:46;;;;;;;;;19.33;17.67;;;;;26.29;55.26;98123.16;6237217;22;101802;-96
2022/08/17 21:44:29;;;;;;;;;19.00;17.33;;;;;26.27;55.34;98119.03;6214306;22;101896;-96
2022/08/17 21:47:11;;;;;;;;;19.33;18.67;;;;;26.29;55.12;98116.78;6237679;22;101854;-96
2022/08/17 21:49:39;;;;;;;;;21.00;20.00;;;;;26.30;55.28;98121.22;6185967;22;102979;-96
2022/08/17 21:52:06;;;;;;;;;19.00;18.00;;;;;26.32;55.13;98116.97;6208110;22;101711;-96
2022/08/17 21:54:41;;;;;;;;;16.67;15.33;;;;;26.33;55.32;98109.47;6206581;22;101978;-96
2022/08/17 21:57:19;;;;;;;;;18.67;17.00;;;;;26.32;54.95;98100.34;6207896;22;101975;-96
2022/08/17 21:59:57;;;;;;;;;19.33;17.00;;;;;26.34;55.14;98095.31;6234280;22;104482;-96
2022/08/17 22:02:54;;;;;;;;;18.67;18.00;;;;;26.38;54.94;98096.31;6184360;22;101691;-96
2022/08/17 22:05:35;;;;;;;;;18.00;16.33;;;;;26.38;54.93;98085.22;6231466;22;101750;-96
2022/08/17 22:08:22;;;;;;;;;17.33;16.67;;;;;26.42;55.13;98082.63;6207569;22;102395;-96
2022/08/17 22:10:50;;;;;;;;;18.33;17.67;;;;;26.38;55.03;98078.84;6232408;22;104622;-96
2022/08/17 22:13:17;;;;;;;;;20.00;17.67;;;;;26.44;55.06;98086.72;6205868;22;101791;-96
2022/08/17 22:16:06;;;;;;;;;17.33;16.33;;;;;26.44;55.06;98086.72;6228125;22;101871;-96
2022/08/17 22:18:41;;;;;;;;;17.67;16.00;;;;;26.41;54.84;98073.50;6211313;22;101824;-96
2022/08/17 22:21:08;;;;;;;;;20.00;17.00;;;;;26.43;54.82;98076.75;6220100;22;105293;-96
2022/08/17 22:26:59;;;;;;;;;17.00;16.33;;;;;26.46;55.12;98090.00;6156455;22;102215;-96
2022/08/17 22:29:52;;;;;;;;;17.00;15.33;;;;;26.47;54.96;98096.38;6177336;22;102156;-96
2022/08/17 22:32:33;;;;;;;;;19.33;17.67;;;;;26.47;54.74;98077.78;6144847;22;104995;-96
2022/08/17 22:35:26;;;;;;;;;18.33;16.33;;;;;26.51;54.90;98084.31;6141025;22;101755;-96
2022/08/17 22:37:55;;;;;;;;;17.33;16.33;;;;;26.52;54.89;98083.16;6214418;22;102375;-96
2022/08/17 22:40:36;;;;;;;;;22.67;19.00;;;;;26.48;54.68;98059.97;6190863;22;102426;-96
2022/08/17 22:43:03;;;;;;;;;17.33;17.00;;;;;26.53;54.59;98068.19;6139584;22;105101;-96
2022/08/17 22:45:32;;;;;;;;;18.00;17.00;;;;;26.56;54.51;98067.56;6188496;22;101836;-96
2022/08/17 22:48:00;;;;;;;;;18.00;17.33;;;;;26.54;54.58;98069.81;6177516;22;102275;-96
2022/08/17 22:50:31;;;;;;;;;18.67;17.33;;;;;26.54;54.84;98058.72;6192073;22;101995;-96
2022/08/17 23:01:41;;;;;;;;;16.67;15.67;;;;;26.62;54.51;98073.75;6171389;22;101956;-96
2022/08/17 23:04:11;;;;;;;;;16.00;16.00;;;;;26.59;54.49;98071.63;6165060;22;104020;-96
2022/08/17 23:06:41;;;;;;;;;16.33;16.33;;;;;26.62;54.49;98082.91;6163502;22;102242;-96
2022/08/17 23:09:09;;;;;;;;;18.00;16.00;;;;;26.63;54.45;98090.09;6140471;22;101971;-96
2022/08/17 23:11:49;;;;;;;;;14.67;14.67;;;;;26.61;54.52;98094.34;6115234;22;101972;-96
2022/08/17 23:14:19;;;;;;;;;16.67;16.00;;;;;26.62;54.38;98099.56;6188451;22;105396;-96
2022/08/17 23:16:48;;;;;;;;;18.00;17.33;;;;;26.62;54.32;98099.56;6163325;22;101837;-96
2022/08/17 23:19:19;;;;;;;;;17.33;16.33;;;;;26.66;54.24;98105.28;6186082;22;101961;-96
2022/08/17 23:21:47;;;;;;;;;18.33;18.00;;;;;26.61;54.34;98095.13;6179589;22;101952;-96
2022/08/17 23:24:18;;;;;;;;;19.67;18.67;;;;;26.67;54.34;98100.56;6220756;22;104689;-96
2022/08/17 23:26:46;;;;;;;;;19.67;18.67;;;;;26.66;54.51;98105.28;6174974;22;101933;-96
2022/08/17 23:29:15;;;;;;;;;16.67;16.67;;;;;26.63;54.57;98112.28;6178696;22;101960;-96
2022/08/17 23:31:45;;;;;;;;;16.00;15.67;;;;;26.66;54.17;98101.72;6193037;22;102084;-96
2022/08/17 23:34:12;;;;;;;;;15.67;15.00;;;;;26.68;54.36;98116.88;6185968;22;103574;-96
2022/08/17 23:36:40;;;;;;;;;20.00;18.00;;;;;26.68;54.51;98116.06;6176633;22;101724;-96
2022/08/17 23:39:08;;;;;;;;;18.00;16.33;;;;;26.67;54.41;98117.19;6166252;22;101937;-96
2022/08/17 23:41:37;;;;;;;;;15.33;14.33;;;;;26.66;54.37;98105.28;6167716;22;101994;-96
2022/08/17 23:44:05;;;;;;;;;20.00;19.00;;;;;26.70;54.47;98116.56;6166069;22;103041;-96
2022/08/17 23:46:33;;;;;;;;;17.67;17.00;;;;;26.69;54.42;98110.22;6191592;22;101756;-96
2022/08/17 23:49:02;;;;;;;;;19.00;19.00;;;;;26.69;54.25;98112.16;6191424;22;101997;-96
2022/08/17 23:51:37;;;;;;;;;15.33;15.33;;;;;26.69;54.48;98120.47;6168086;22;102060;-96
2022/08/17 23:54:20;;;;;;;;;17.00;16.67;;;;;26.67;54.38;98120.78;6167699;22;103006;-96
2022/08/17 23:56:48;;;;;;;;;17.00;17.00;;;;;26.70;54.13;98127.66;6170298;22;101891;-96
2022/08/17 23:59:21;;;;;;;;;18.00;16.33;;;;;26.71;54.66;98130.09;6167966;22;102061;-96
